AirNav   Airventure
 
 1495 users online  

66TS KHOU-TV Heliport
Houston, Texas, USA

GOING TO HOUSTON?


FAA INFORMATION EFFECTIVE 20 JULY 2017

Location

FAA Identifier: 66TS
Lat/Long: 29-45-37.8210N / 095-23-14.7790W
29-45.630350N / 095-23.246317W
29.7605058 / -95.3874386
(estimated)
Elevation: 70 ft. / 21 m (estimated)
Variation: 06E (1985)
From city: 1 mile W of HOUSTON, TX
Time zone: UTC -5 (UTC -6 during Standard Time)
Zip code: 77019

Heliport Operations

Heliport use: Private use. Permission required prior to landing
Activation date: 02/1987
Control tower: no
ARTCC: HOUSTON CENTER
FSS: MONTGOMERY COUNTY FLIGHT SERVICE STATION
FOR FP FILING CALL CXO FSS 1-800-833-5602.
Attendance: CONTINUOUS
Wind indicator: yes
Segmented circle: no
Lights: ACTVT PERIMETER LGTS - 122.85.

Heliport Communications

WX ASOS at HOU (9 nm SE): PHONE 713-847-1462
WX ASOS at IAH (14 nm N): PHONE 281-443-6397
WX AWOS-3 at AXH (16 nm S): 123.625 (281-431-6572)
WX ASOS at LVJ (16 nm SE): 118.525 (281-992-1853)
WX ASOS at SGR (16 nm SW): 118.125 (281-242-7605)

Nearby radio navigation aids

VOR radial/distance  VOR name  Freq  Var
HUBr312/8.5HOBBY VOR/DME117.1005E
IAHr185/12.0HUMBLE VORTAC116.6005E
MHFr284/35.8TRINITY VOR/DME113.6007E

 
NDB name  Hdg/Dist  Freq  Var  ID
NIXIN208/16.632605EBVP -... ...- .--.
SANJAC283/17.434705EJPA .--- .--. .-

Heliport Services

Runway Information

Helipad H1

Dimensions: 50 x 50 ft. / 15 x 15 m
Surface: concrete
ROOFTOP.
Runway edge lights: PAD HAS PERIMETER LIGHTS/FLOODLIGHTS.
Operational restrictions: INGRESS/EGRESS 270 DEGREES AND 090 DEGREES.
Traffic pattern: leftleft

Heliport Ownership and Management from official FAA records

Ownership: Privately-owned
Owner: BELO/GULF TV BROADCASTING
1945 ALLEN PARKWAY
HOUSTON, TX 77109
Phone 713-526-1111
Manager: FRANK DAVIS
1945 ALLEN PARKWAY
HOUSTON, TX 77109
Phone 713-526-1111

Heliport Operational Statistics

Aircraft based on the field: 1
Helicopters: 1
    

Additional Remarks

A52-H1 40' FLAG POLES 100'W; 170' BLDG 150' EAST; 170' BLDG/TOWER 150' SOUTH.

Instrument Procedures

There are no published instrument procedures at 66TS.

Some nearby airports with instrument procedures:

KHOU - William P Hobby Airport (9 nm SE)
KIAH - George Bush Intercontinental/Houston Airport (14 nm N)
KEFD - Ellington Airport (15 nm SE)
KIWS - West Houston Airport (15 nm W)
KAXH - Houston Southwest Airport (16 nm S)
KLVJ - Pearland Regional Airport (16 nm SE)
KSGR - Sugar Land Regional Airport (16 nm SW)
T41 - La Porte Municipal Airport (18 nm E)
 
Loc | Ops | Rwys | IFR | FBO | Links
Com | Nav | Svcs | Stats | Notes


 
Area around 66TS (KHOU-TV Heliport)
 
Road maps at: MapQuest Bing Google
 
Aerial photo
No photo
 
Sectional chart

 
Airport distance calculator
Flying to KHOU-TV Heliport? Find the distance to fly.

From to 66TS

Sunrise and sunset
Times for 28-Jul-2017
 Local
(UTC-5)
 Zulu
(UTC)
Morning civil twilight06:1311:13
Sunrise06:4011:40
Sunset20:1601:16
Evening civil twilight20:4201:42

Current date and time
Zulu (UTC)  28-Jul-2017 18:03:02
Local (UTC-5)  28-Jul-2017 13:03:02
 
METAR
KHOU 
9nm SE 
281753Z VRB05KT 10SM SCT040 SCT250 34/22 A2995 RMK AO2 SLP147 T03440222 10350 20267 58013
KIAH 
14nm N 
281753Z 21007KT 10SM FEW040 SCT300 34/23 A2996 RMK AO2 SLP142 T03390233 10339 20267 58013
KEFD 
15nm SE 
281750Z 22007KT 10SM BKN030 BKN250 35/22 A2998
KAXH 
16nm S 
281755Z AUTO 23005KT 10SM SCT038 33/24 A2997 RMK AO2 T03310241 10332 20226
KSGR 
16nm SW 
281753Z 23007KT 10SM SCT041 34/23 A2996 RMK AO2 SLP144 T03440233 10344 20250 58014
KLVJ 
16nm SE 
281753Z AUTO VRB04KT 10SM SCT036 34/23 A2997 RMK AO2 SLP148 T03390228 10344 20261 58011
TAF
KHOU 
9nm SE 
281720Z 2818/2918 24009KT P6SM SCT040 SCT250 FM282100 19008KT P6SM VCTS SCT060CB FM290100 19005KT P6SM FEW250 FM291500 25009KT P6SM SCT050
KIAH 
14nm N 
281720Z 2818/2924 25009KT P6SM SCT035 SCT300 FM282200 20008KT P6SM VCSH SCT060 FM290100 19005KT P6SM FEW250 FM291500 25009KT P6SM BKN250
KEFD 
15nm SE 
281200Z 2812/2918 20009KT 9999 SCT020 BKN250 QNH2997INS BECMG 2815/2816 20009KT 9999 SCT030 SCT250 QNH2980INS BECMG 2902/2903 20009KT 9999 FEW250 QNH2984INS TX35/2821Z TN26/2812Z
KSGR 
16nm SW 
281720Z 2818/2918 22007KT P6SM VCSH SCT025 FM290100 20004KT P6SM FEW250 FM291500 24008KT P6SM FEW050 SCT250
NOTAMs
Click for the latest NOTAMs
NOTAMs are issued by the DoD/FAA and will open in a separate window not controlled by AirNav.

 

 
 

Would you like to see your business listed on this page?

 If your business provides an interesting product or service to pilots, flight crews, aircraft, or users of the KHOU-TV Heliport, you should consider listing it here.  To start the listing process, click on the button below
 
Add a business
 

Other Pages about KHOU-TV Heliport

Update a link
 
Copyright © AirNav, LLC. All rights reserved. Privacy Policy  Contact